createdAt,value
2018-07-08T00:01:22.753Z,0.82
2018-07-08T00:03:50.963Z,0.98
2018-07-08T00:06:19.607Z,0.90
2018-07-08T00:08:49.040Z,1.10
2018-07-08T00:11:18.040Z,1.10
2018-07-08T00:13:46.982Z,1.00
2018-07-08T00:16:16.529Z,0.90
2018-07-08T00:18:45.423Z,0.90
2018-07-08T00:21:14.219Z,1.10
2018-07-08T00:23:42.880Z,1.00
2018-07-08T00:26:11.517Z,0.90
2018-07-08T00:28:40.118Z,1.20
2018-07-08T00:31:08.736Z,0.80
2018-07-08T00:33:37.471Z,1.00
2018-07-08T00:36:06.422Z,0.90
2018-07-08T00:38:35.013Z,1.02
2018-07-08T00:41:03.582Z,1.05
2018-07-08T00:43:32.262Z,1.10
2018-07-08T00:46:00.896Z,0.80
2018-07-08T00:48:29.812Z,1.00
2018-07-08T00:50:58.448Z,1.20
2018-07-08T00:53:27.041Z,1.10
2018-07-08T00:55:55.587Z,1.05
2018-07-08T00:58:24.944Z,1.20
2018-07-08T01:00:54.166Z,1.20
2018-07-08T01:03:22.770Z,1.15
2018-07-08T01:05:51.680Z,1.00
2018-07-08T01:08:20.974Z,1.10
2018-07-08T01:10:49.580Z,1.10
2018-07-08T01:13:18.531Z,1.07
2018-07-08T01:15:47.155Z,1.17
2018-07-08T01:18:16.431Z,1.10
2018-07-08T01:20:44.973Z,1.00
2018-07-08T01:23:14.334Z,1.00
2018-07-08T01:25:54.149Z,0.93
2018-07-08T01:28:22.723Z,1.30
2018-07-08T01:30:51.278Z,1.30
2018-07-08T01:33:19.969Z,0.88
2018-07-08T01:35:48.586Z,1.05
2018-07-08T01:38:17.212Z,1.10
2018-07-08T01:40:46.464Z,1.02
2018-07-08T01:43:15.029Z,0.90
2018-07-08T01:45:43.680Z,1.10
2018-07-08T01:48:12.916Z,1.00
2018-07-08T01:50:41.560Z,0.90
2018-07-08T01:53:10.223Z,1.20
2018-07-08T01:55:38.825Z,1.07
2018-07-08T01:58:07.550Z,0.90
2018-07-08T02:00:36.777Z,0.90
2018-07-08T02:03:05.534Z,1.00
2018-07-08T02:05:34.048Z,0.90
2018-07-08T02:08:02.679Z,0.98
2018-07-08T02:10:32.188Z,0.90
2018-07-08T02:13:00.906Z,1.10
2018-07-08T02:15:29.604Z,1.10
2018-07-08T02:17:58.222Z,1.00
2018-07-08T02:20:27.006Z,1.10
2018-07-08T02:22:55.888Z,1.05
2018-07-08T02:25:24.559Z,1.02
2018-07-08T02:27:53.118Z,1.00
2018-07-08T02:30:21.844Z,0.90
2018-07-08T02:32:50.391Z,1.10
2018-07-08T02:35:19.023Z,0.90
2018-07-08T02:37:47.669Z,0.85
2018-07-08T02:40:16.515Z,1.10
2018-07-08T02:42:45.204Z,0.80
2018-07-08T02:45:14.088Z,1.10
2018-07-08T02:47:42.674Z,1.00
2018-07-08T02:50:11.727Z,1.20
2018-07-08T02:52:40.628Z,1.10
2018-07-08T02:55:09.265Z,1.12
2018-07-08T02:57:38.320Z,1.10
2018-07-08T03:00:06.973Z,1.20
2018-07-08T03:02:35.527Z,1.17
2018-07-08T03:05:04.815Z,1.10
2018-07-08T03:07:33.451Z,1.15
2018-07-08T03:10:02.393Z,1.00
2018-07-08T03:12:30.978Z,0.90
2018-07-08T03:14:59.557Z,1.12
2018-07-08T03:17:28.343Z,1.40
2018-07-08T03:19:57.113Z,1.10
2018-07-08T03:22:25.984Z,1.10
2018-07-08T03:24:54.577Z,1.20
2018-07-08T03:27:23.756Z,0.85
2018-07-08T03:29:52.437Z,1.32
2018-07-08T03:32:21.046Z,1.00
2018-07-08T03:34:49.943Z,1.35
2018-07-08T03:37:18.510Z,1.15
2018-07-08T03:39:47.066Z,1.30
2018-07-08T03:42:15.711Z,1.22
2018-07-08T03:44:44.497Z,1.23
2018-07-08T03:47:13.171Z,1.22
2018-07-08T03:49:42.672Z,1.17
2018-07-08T03:52:11.263Z,1.32
2018-07-08T03:54:39.872Z,1.33
2018-07-08T03:57:08.413Z,1.10
2018-07-08T03:59:36.919Z,1.13
2018-07-08T04:02:05.682Z,1.10
2018-07-08T04:04:34.453Z,1.10
2018-07-08T04:07:03.110Z,1.30
2018-07-08T04:09:31.839Z,1.00
2018-07-08T04:12:00.362Z,1.27
2018-07-08T04:14:29.930Z,1.20
2018-07-08T04:16:58.756Z,1.35
2018-07-08T04:19:27.374Z,1.15
2018-07-08T04:21:56.630Z,1.10
2018-07-08T04:24:25.181Z,1.30
2018-07-08T04:26:53.766Z,1.07
2018-07-08T04:29:22.624Z,1.20
2018-07-08T04:31:51.448Z,1.17
2018-07-08T04:34:20.020Z,1.02
2018-07-08T04:36:48.935Z,1.10
2018-07-08T04:39:17.761Z,1.40
2018-07-08T04:41:46.280Z,1.30
2018-07-08T04:44:15.020Z,1.10
2018-07-08T04:46:43.598Z,1.27
2018-07-08T04:49:12.188Z,1.10
2018-07-08T04:51:40.928Z,1.40
2018-07-08T04:54:10.975Z,1.10
2018-07-08T04:56:40.264Z,1.55
2018-07-08T04:59:08.904Z,1.10
2018-07-08T05:01:38.002Z,1.40
2018-07-08T05:04:06.510Z,1.00
2018-07-08T05:06:35.119Z,1.20
2018-07-08T05:09:04.271Z,1.50
2018-07-08T05:11:32.931Z,1.10
2018-07-08T05:14:01.455Z,1.30
2018-07-08T05:16:30.020Z,1.30
2018-07-08T05:18:58.528Z,1.10
2018-07-08T05:21:27.063Z,1.47
2018-07-08T05:23:55.554Z,1.37
2018-07-08T05:26:24.025Z,1.30
2018-07-08T05:28:52.572Z,1.30
2018-07-08T05:31:21.134Z,1.40
2018-07-08T05:33:49.655Z,1.25
2018-07-08T05:36:18.425Z,1.33
2018-07-08T05:38:47.031Z,1.30
2018-07-08T05:41:15.638Z,1.47
2018-07-08T05:43:44.246Z,1.50
2018-07-08T05:46:12.775Z,1.30
2018-07-08T05:48:41.294Z,1.12
2018-07-08T05:51:09.852Z,1.20
2018-07-08T05:53:39.110Z,1.50
2018-07-08T05:56:07.607Z,1.20
2018-07-08T05:58:36.106Z,1.30
2018-07-08T06:01:04.714Z,1.70
2018-07-08T06:03:34.054Z,1.30
2018-07-08T06:06:02.728Z,1.37
2018-07-08T06:08:31.290Z,1.25
2018-07-08T06:10:59.817Z,1.60
2018-07-08T06:13:28.351Z,1.50
2018-07-08T06:15:57.411Z,1.55
2018-07-08T06:18:25.949Z,1.50
2018-07-08T06:20:54.460Z,1.57
2018-07-08T06:23:23.339Z,1.50
2018-07-08T06:25:51.985Z,1.82
2018-07-08T06:28:20.843Z,1.90
2018-07-08T06:30:49.373Z,1.70
2018-07-08T06:33:18.032Z,1.70
2018-07-08T06:35:47.037Z,1.57
2018-07-08T06:38:15.486Z,1.77
2018-07-08T06:40:44.205Z,1.52
2018-07-08T06:43:12.771Z,1.97
2018-07-08T06:45:41.490Z,1.65
2018-07-08T06:48:10.072Z,1.60
2018-07-08T06:50:38.633Z,1.70
2018-07-08T06:53:07.297Z,1.95
2018-07-08T06:55:35.810Z,1.98
2018-07-08T06:58:05.140Z,1.92
2018-07-08T07:00:34.504Z,1.80
2018-07-08T07:03:03.135Z,1.67
2018-07-08T07:05:32.038Z,2.00
2018-07-08T07:08:00.621Z,1.45
2018-07-08T07:10:29.155Z,1.65
2018-07-08T07:12:57.829Z,1.30
2018-07-08T07:15:26.312Z,1.70
2018-07-08T07:17:54.923Z,1.92
2018-07-08T07:20:23.695Z,1.93
2018-07-08T07:22:52.235Z,2.08
2018-07-08T07:25:20.757Z,1.92
2018-07-08T07:27:49.431Z,1.90
2018-07-08T07:30:17.973Z,1.75
2018-07-08T07:32:46.605Z,1.77
2018-07-08T07:35:15.212Z,1.80
2018-07-08T07:37:43.676Z,1.82
2018-07-08T07:40:12.236Z,1.95
2018-07-08T07:42:40.892Z,1.80
2018-07-08T07:45:09.548Z,1.98
2018-07-08T07:47:38.148Z,1.67
2018-07-08T07:50:06.659Z,1.80
2018-07-08T07:52:35.296Z,1.83
2018-07-08T07:55:03.808Z,1.47
2018-07-08T07:57:32.295Z,1.72
2018-07-08T08:00:00.818Z,1.62
2018-07-08T08:02:29.460Z,1.60
2018-07-08T08:04:58.007Z,1.82
2018-07-08T08:07:26.588Z,1.70
2018-07-08T08:09:55.559Z,1.77
2018-07-08T08:12:24.195Z,1.80
2018-07-08T08:14:52.710Z,1.70
2018-07-08T08:17:21.216Z,1.60
2018-07-08T08:19:49.824Z,1.70
2018-07-08T08:22:18.302Z,1.60
2018-07-08T08:24:47.028Z,1.60
2018-07-08T08:27:16.178Z,1.60
2018-07-08T08:29:44.694Z,1.70
2018-07-08T08:32:13.187Z,1.45
2018-07-08T08:35:11.709Z,1.73
2018-07-08T08:37:41.571Z,1.60
2018-07-08T08:40:10.918Z,1.67
2018-07-08T08:42:39.809Z,1.60
2018-07-08T08:45:09.937Z,1.40
2018-07-08T08:47:38.473Z,1.80
2018-07-08T08:50:08.059Z,1.92
2018-07-08T08:52:36.890Z,1.73
2018-07-08T08:55:05.882Z,1.72
2018-07-08T08:57:34.441Z,1.70
2018-07-08T09:00:03.166Z,1.90
2018-07-08T09:02:31.804Z,1.77
2018-07-08T09:05:00.319Z,1.77
2018-07-08T09:07:29.104Z,1.47
2018-07-08T09:09:57.946Z,1.75
2018-07-08T09:12:26.529Z,1.80
2018-07-08T09:14:55.651Z,1.75
2018-07-08T09:17:24.356Z,1.73
2018-07-08T09:19:52.942Z,1.80
2018-07-08T09:22:21.523Z,2.10
2018-07-08T09:24:50.228Z,1.80
2018-07-08T09:27:18.809Z,1.85
2018-07-08T09:29:47.310Z,2.02
2018-07-08T09:32:15.914Z,1.55
2018-07-08T09:34:44.502Z,1.82
2018-07-08T09:37:13.058Z,1.70
2018-07-08T09:39:41.774Z,1.70
2018-07-08T09:42:10.535Z,1.70
2018-07-08T09:44:39.144Z,1.85
2018-07-08T09:47:07.813Z,1.60
2018-07-08T09:49:36.279Z,1.62
2018-07-08T09:52:04.997Z,2.02
2018-07-08T09:54:33.583Z,1.70
2018-07-08T09:57:02.235Z,1.52
2018-07-08T09:59:30.560Z,1.45
2018-07-08T10:01:59.204Z,1.72
2018-07-08T10:04:27.815Z,1.40
2018-07-08T10:06:56.408Z,1.62
2018-07-08T10:09:25.445Z,1.90
2018-07-08T10:11:54.075Z,1.55
2018-07-08T10:14:23.735Z,1.70
2018-07-08T10:16:52.384Z,1.60
2018-07-08T10:19:21.619Z,1.80
2018-07-08T10:21:50.300Z,1.72
2018-07-08T10:24:18.828Z,1.72
2018-07-08T10:26:58.686Z,1.40
2018-07-08T10:29:27.227Z,1.50
2018-07-08T10:31:56.022Z,1.90
2018-07-08T10:34:24.564Z,2.20
2018-07-08T10:36:53.297Z,1.70
2018-07-08T10:39:21.832Z,1.60
2018-07-08T10:41:51.372Z,1.57
2018-07-08T10:44:20.220Z,1.70
2018-07-08T10:46:48.751Z,1.80
2018-07-08T10:49:17.363Z,1.70
2018-07-08T10:51:46.054Z,1.52
2018-07-08T10:54:14.873Z,1.70
2018-07-08T10:56:43.384Z,1.63
2018-07-08T10:59:11.999Z,1.63
2018-07-08T11:01:40.562Z,1.70
2018-07-08T11:04:09.087Z,1.55
2018-07-08T11:06:38.307Z,1.60
2018-07-08T11:09:07.036Z,1.77
2018-07-08T11:11:35.657Z,1.65
2018-07-08T11:14:04.326Z,1.80
2018-07-08T11:16:33.377Z,1.70
2018-07-08T11:19:02.739Z,1.80
2018-07-08T11:21:31.316Z,1.50
2018-07-08T11:24:00.328Z,1.67
2018-07-08T11:26:28.831Z,1.65
2018-07-08T11:28:57.399Z,1.80
2018-07-08T11:31:25.919Z,1.98
2018-07-08T11:33:54.894Z,1.92
2018-07-08T11:36:24.555Z,1.90
2018-07-08T11:38:53.713Z,1.90
2018-07-08T11:41:22.425Z,2.07
2018-07-08T11:43:50.935Z,2.20
2018-07-08T11:46:19.700Z,1.90
2018-07-08T11:48:48.293Z,1.85
2018-07-08T11:51:16.844Z,1.98
2018-07-08T11:53:45.627Z,1.75
2018-07-08T11:56:14.176Z,2.20
2018-07-08T11:58:42.744Z,2.50
2018-07-08T12:01:11.330Z,2.92
2018-07-08T12:03:39.981Z,2.70
2018-07-08T12:06:08.479Z,2.35
2018-07-08T12:08:37.467Z,2.80
2018-07-08T12:11:06.424Z,2.50
2018-07-08T12:13:35.167Z,2.22
2018-07-08T12:16:03.812Z,2.10
2018-07-08T12:18:32.370Z,2.22
2018-07-08T12:21:00.859Z,1.82
2018-07-08T12:23:29.459Z,1.80
2018-07-08T12:25:58.670Z,1.90
2018-07-08T12:28:27.420Z,2.00
2018-07-08T12:30:57.225Z,2.05
2018-07-08T12:33:26.179Z,1.70
2018-07-08T12:35:56.612Z,1.60
2018-07-08T12:38:25.101Z,1.80
2018-07-08T12:40:53.609Z,1.73
2018-07-08T12:43:22.302Z,1.80
2018-07-08T12:45:50.881Z,1.80
2018-07-08T12:48:19.464Z,1.50
2018-07-08T12:50:48.121Z,1.60
2018-07-08T12:53:16.642Z,1.72
2018-07-08T12:55:45.409Z,1.40
2018-07-08T12:58:13.919Z,1.67
2018-07-08T13:00:42.539Z,1.57
2018-07-08T13:03:11.108Z,1.73
2018-07-08T13:05:39.729Z,1.50
2018-07-08T13:08:08.365Z,1.50
2018-07-08T13:10:36.945Z,1.92
2018-07-08T13:13:06.319Z,1.57
2018-07-08T13:15:34.909Z,1.55
2018-07-08T13:18:04.415Z,1.57
2018-07-08T13:20:33.186Z,1.70
2018-07-08T13:23:01.679Z,1.50
2018-07-08T13:25:31.148Z,1.67
2018-07-08T13:28:00.104Z,1.57
2018-07-08T13:30:30.737Z,1.43
2018-07-08T13:32:59.428Z,1.47
2018-07-08T13:35:28.587Z,1.60
2018-07-08T13:37:57.072Z,1.30
2018-07-08T13:40:25.727Z,1.47
2018-07-08T13:42:54.226Z,1.50
2018-07-08T13:45:23.134Z,1.40
2018-07-08T13:47:51.600Z,1.60
2018-07-08T13:50:20.206Z,1.40
2018-07-08T13:52:48.770Z,1.30
2018-07-08T13:55:17.311Z,1.42
2018-07-08T13:57:45.804Z,1.40
2018-07-08T14:00:14.385Z,1.60
2018-07-08T14:02:42.918Z,1.40
2018-07-08T14:05:12.487Z,1.40
2018-07-08T14:07:41.156Z,1.62
2018-07-08T14:10:09.842Z,1.55
2018-07-08T14:12:38.380Z,1.40
2018-07-08T14:15:07.534Z,1.62
2018-07-08T14:17:36.074Z,1.20
2018-07-08T14:20:05.038Z,1.37
2018-07-08T14:22:33.645Z,1.70
2018-07-08T14:25:02.347Z,1.30
2018-07-08T14:27:31.170Z,1.57
2018-07-08T14:29:59.823Z,1.40
2018-07-08T14:32:28.452Z,1.30
2018-07-08T14:34:57.692Z,1.40
2018-07-08T14:37:26.457Z,1.35
2018-07-08T14:39:55.339Z,1.40
2018-07-08T14:42:23.967Z,1.45
2018-07-08T14:44:52.862Z,1.60
2018-07-08T14:47:22.143Z,1.15
2018-07-08T14:49:50.827Z,1.20
2018-07-08T14:52:19.510Z,1.10
2018-07-08T14:54:48.250Z,1.05
2018-07-08T14:57:17.109Z,1.50
2018-07-08T14:59:45.957Z,1.30
2018-07-08T15:02:14.974Z,1.20
2018-07-08T15:04:44.359Z,1.32
2018-07-08T15:07:13.379Z,1.20
2018-07-08T15:09:42.203Z,1.40
2018-07-08T15:12:10.765Z,1.22
2018-07-08T15:14:39.028Z,1.20
2018-07-08T15:17:07.708Z,1.12
2018-07-08T15:19:36.429Z,1.07
2018-07-08T15:22:05.075Z,1.27
2018-07-08T15:24:33.676Z,1.10
2018-07-08T15:27:02.235Z,1.30
2018-07-08T15:29:30.778Z,1.10
2018-07-08T15:31:59.400Z,1.15
2018-07-08T15:34:29.077Z,1.30
2018-07-08T15:36:58.087Z,1.20
2018-07-08T15:39:26.665Z,1.20
2018-07-08T15:41:55.227Z,1.37
2018-07-08T15:44:23.933Z,1.10
2018-07-08T15:46:52.587Z,1.10
2018-07-08T15:49:21.189Z,1.37
2018-07-08T15:51:49.758Z,1.40
2018-07-08T15:54:18.444Z,1.15
2018-07-08T15:56:47.337Z,1.20
2018-07-08T15:59:15.871Z,1.37
2018-07-08T16:01:44.464Z,1.35
2018-07-08T16:04:13.011Z,1.40
2018-07-08T16:06:41.826Z,1.33
2018-07-08T16:09:10.455Z,1.40
2018-07-08T16:11:38.866Z,1.45
2018-07-08T16:14:07.782Z,1.40
2018-07-08T16:16:36.438Z,1.37
2018-07-08T16:19:05.057Z,1.40
2018-07-08T16:21:33.658Z,1.50
2018-07-08T16:24:02.289Z,1.35
2018-07-08T16:26:31.512Z,1.40
2018-07-08T16:29:00.208Z,1.60
2018-07-08T16:31:28.724Z,1.70
2018-07-08T16:33:57.407Z,1.60
2018-07-08T16:36:26.025Z,1.55
2018-07-08T16:38:54.680Z,1.77
2018-07-08T16:41:23.801Z,1.80
2018-07-08T16:43:52.560Z,1.70
2018-07-08T16:46:21.150Z,1.80
2018-07-08T16:48:49.769Z,1.70
2018-07-08T16:51:18.321Z,1.42
2018-07-08T16:53:46.931Z,1.40
2018-07-08T16:56:15.624Z,1.50
2018-07-08T16:58:44.358Z,1.35
2018-07-08T17:01:12.925Z,1.50
2018-07-08T17:03:41.526Z,1.42
2018-07-08T17:06:10.150Z,1.60
2018-07-08T17:08:38.716Z,1.47
2018-07-08T17:11:07.447Z,1.67
2018-07-08T17:13:36.125Z,1.60
2018-07-08T17:16:05.064Z,1.60
2018-07-08T17:18:33.718Z,1.50
2018-07-08T17:21:02.370Z,1.53
2018-07-08T17:23:31.206Z,1.60
2018-07-08T17:25:59.778Z,1.62
2018-07-08T17:28:28.422Z,1.60
2018-07-08T17:30:57.022Z,1.60
2018-07-08T17:33:25.620Z,1.60
2018-07-08T17:35:54.218Z,1.45
2018-07-08T17:38:22.782Z,1.70
2018-07-08T17:40:51.446Z,1.62
2018-07-08T17:43:20.047Z,1.42
2018-07-08T17:45:48.706Z,1.57
2018-07-08T17:48:17.390Z,1.30
2018-07-08T17:50:46.094Z,1.40
2018-07-08T17:53:14.818Z,1.67
2018-07-08T17:55:43.466Z,1.57
2018-07-08T17:58:12.038Z,1.50
2018-07-08T18:00:40.735Z,1.40
2018-07-08T18:03:09.394Z,1.60
2018-07-08T18:05:38.201Z,1.50
2018-07-08T18:08:10.621Z,1.50
2018-07-08T18:10:39.225Z,1.40
2018-07-08T18:13:08.997Z,1.50
2018-07-08T18:15:38.350Z,1.67
2018-07-08T18:18:07.024Z,1.60
2018-07-08T18:20:35.596Z,1.60
2018-07-08T18:23:04.266Z,1.60
2018-07-08T18:25:32.833Z,1.62
2018-07-08T18:28:02.305Z,1.87
2018-07-08T18:30:32.708Z,1.72
2018-07-08T18:33:01.366Z,1.67
2018-07-08T18:35:29.987Z,1.70
2018-07-08T18:37:58.661Z,1.62
2018-07-08T18:40:27.236Z,1.60
2018-07-08T18:42:56.144Z,1.57
2018-07-08T18:45:24.749Z,1.67
2018-07-08T18:47:54.360Z,1.60
2018-07-08T18:50:23.011Z,1.60
2018-07-08T18:52:51.591Z,1.60
2018-07-08T18:55:21.167Z,1.57
2018-07-08T18:57:49.883Z,1.67
2018-07-08T19:00:18.468Z,1.52
2018-07-08T19:02:47.152Z,1.40
2018-07-08T19:05:15.713Z,1.60
2018-07-08T19:07:44.353Z,1.62
2018-07-08T19:10:13.017Z,1.70
2018-07-08T19:12:41.642Z,1.65
2018-07-08T19:15:10.334Z,1.67
2018-07-08T19:17:38.959Z,1.52
2018-07-08T19:20:07.540Z,1.50
2018-07-08T19:22:36.158Z,1.45
2018-07-08T19:25:05.498Z,1.80
2018-07-08T19:27:34.119Z,1.40
2018-07-08T19:30:02.956Z,1.62
2018-07-08T19:32:31.590Z,1.60
2018-07-08T19:35:00.607Z,1.60
2018-07-08T19:37:29.280Z,1.60
2018-07-08T19:39:57.936Z,1.35
2018-07-08T19:42:26.676Z,1.50
2018-07-08T19:44:57.012Z,1.60
2018-07-08T19:47:25.535Z,1.42
2018-07-08T19:49:54.162Z,1.47
2018-07-08T19:52:22.787Z,1.60
2018-07-08T19:54:51.320Z,1.55
2018-07-08T19:57:19.906Z,1.60
2018-07-08T19:59:48.431Z,1.42
2018-07-08T20:02:16.995Z,1.60
2018-07-08T20:04:45.938Z,1.63
2018-07-08T20:07:14.631Z,1.60
2018-07-08T20:09:43.131Z,1.85
2018-07-08T20:12:12.059Z,1.67
2018-07-08T20:14:40.663Z,1.80
2018-07-08T20:17:09.297Z,1.50
2018-07-08T20:19:37.876Z,1.60
2018-07-08T20:22:06.601Z,1.60
2018-07-08T20:24:35.697Z,1.72
2018-07-08T20:27:04.837Z,1.50
2018-07-08T20:29:34.157Z,1.60
2018-07-08T20:32:02.792Z,2.00
2018-07-08T20:34:31.393Z,1.82
2018-07-08T20:36:59.941Z,2.12
2018-07-08T20:39:28.632Z,1.80
2018-07-08T20:41:57.204Z,1.80
2018-07-08T20:44:25.780Z,2.00
2018-07-08T20:46:54.367Z,1.90
2018-07-08T20:49:23.026Z,1.80
2018-07-08T20:51:51.778Z,1.80
2018-07-08T20:54:21.210Z,1.90
2018-07-08T20:56:49.902Z,1.90
2018-07-08T20:59:18.487Z,1.70
2018-07-08T21:01:47.043Z,1.95
2018-07-08T21:04:15.587Z,1.70
2018-07-08T21:06:44.849Z,1.50
2018-07-08T21:09:14.379Z,1.80
2018-07-08T21:11:42.946Z,1.60
2018-07-08T21:14:11.601Z,1.42
2018-07-08T21:16:40.207Z,1.50
2018-07-08T21:19:08.754Z,1.40
2018-07-08T21:21:37.371Z,1.60
2018-07-08T21:24:06.258Z,1.75
2018-07-08T21:26:34.863Z,1.50
2018-07-08T21:29:03.447Z,1.70
2018-07-08T21:31:32.040Z,1.60
2018-07-08T21:34:00.591Z,1.80
2018-07-08T21:36:29.153Z,1.67
2018-07-08T21:38:57.386Z,1.70
2018-07-08T21:41:25.959Z,1.80
2018-07-08T21:43:54.591Z,1.72
2018-07-08T21:46:23.743Z,1.70
2018-07-08T21:48:52.325Z,1.80
2018-07-08T21:51:21.220Z,1.70
2018-07-08T21:53:49.877Z,1.62
2018-07-08T21:56:18.495Z,1.70
2018-07-08T21:58:47.123Z,1.82
2018-07-08T22:01:17.863Z,1.98
2018-07-08T22:03:48.025Z,1.70
2018-07-08T22:06:17.544Z,1.50
2018-07-08T22:08:46.358Z,1.70
2018-07-08T22:11:15.640Z,1.67
2018-07-08T22:13:47.632Z,2.00
2018-07-08T22:16:16.310Z,2.02
2018-07-08T22:18:45.180Z,1.53
2018-07-08T22:21:13.794Z,1.60
2018-07-08T22:23:42.334Z,1.97
2018-07-08T22:26:11.021Z,1.75
2018-07-08T22:28:39.899Z,1.92
2018-07-08T22:31:08.659Z,1.87
2018-07-08T22:33:37.413Z,1.80
2018-07-08T22:36:06.045Z,1.70
2018-07-08T22:38:34.732Z,1.70
2018-07-08T22:41:03.374Z,1.95
2018-07-08T22:43:31.677Z,2.02
2018-07-08T22:46:00.265Z,1.75
2018-07-08T22:48:28.959Z,2.17
2018-07-08T22:50:57.552Z,1.65
2018-07-08T22:53:26.143Z,2.20
2018-07-08T22:55:54.736Z,2.00
2018-07-08T22:58:23.391Z,1.90
2018-07-08T23:01:03.330Z,1.80
2018-07-08T23:03:50.555Z,1.90
2018-07-08T23:06:20.212Z,1.67
2018-07-08T23:08:49.859Z,1.80
2018-07-08T23:11:18.853Z,1.80
2018-07-08T23:13:48.575Z,1.90
2018-07-08T23:16:17.406Z,1.70
2018-07-08T23:18:46.035Z,2.05
2018-07-08T23:21:14.707Z,1.70
2018-07-08T23:23:43.317Z,1.72
2018-07-08T23:26:11.875Z,1.83
2018-07-08T23:28:40.598Z,1.90
2018-07-08T23:31:09.827Z,1.90
2018-07-08T23:33:38.498Z,1.87
2018-07-08T23:36:07.640Z,1.92
2018-07-08T23:38:36.325Z,1.70
2018-07-08T23:41:06.053Z,2.00
2018-07-08T23:43:34.634Z,1.67
2018-07-08T23:46:03.727Z,1.87
2018-07-08T23:48:32.885Z,1.87
2018-07-08T23:51:01.494Z,1.92
2018-07-08T23:53:33.034Z,1.90
2018-07-08T23:56:01.603Z,2.10
2018-07-08T23:58:30.240Z,1.90
